Port Stanley — V7EE9 — position and weather

sailwx.info

Track history (hours):
 
Tides and Currents Weather Stations Pressure Air Temp Water Temp Dewpoint Dewpoint Depression Visibility Wind Speed Wind Dir Waves Ship Positions

Port Stanley

Last reported at 2017-Sep-21 06:27 UTC. Time now 2017-Oct-23 03:01 UTC.
Position N 37°46' E 122°34'.
Warning: this ship's position is 31 days out of date.

Length 183 m; draft 8.5 m.

Type: Ship. MMSI: 538090299.

Date/timePositionNaut miles runAvg speedWind from/ knotsBaromVisibWave heightAir tempDewpointWater temp
2017-Sep-21 06:27N 37°46' E 122°34'511.5
2017-Sep-21 06:00N 37°48' E 122°28'611.8
2017-Sep-21 05:30N 37°51' E 122°22'612.0
2017-Sep-21 05:00N 37°54' E 122°15'611.9
2017-Sep-21 04:31N 37°58' E 122°09'711.5
2017-Sep-21 03:55N 38°01' E 122°01'611.4
2017-Sep-21 03:22N 38°04' E 121°54'411.3
2017-Sep-21 03:01N 38°06' E 121°50'911.3
2017-Sep-21 02:15N 38°11' E 121°41'811.4
2017-Sep-21 01:34N 38°15' E 121°32'111.5
2017-Sep-21 01:30N 38°15' E 121°31'  
2017-Sep-14 23:25N 38°10' E 119°06'0 0.0
2017-Sep-14 16:07N 38°10' E 119°06'0 0.0
2017-Sep-13 17:01N 38°10' E 119°06'0 0.0
2017-Sep-13 16:55N 38°10' E 119°06'0 0.0
2017-Sep-13 16:19N 38°10' E 119°06'0 0.0
2017-Sep-13 02:56N 38°10' E 119°06'0 0.0
2017-Sep-13 02:26N 38°10' E 119°06'0 0.1
2017-Sep-13 01:57N 38°10' E 119°06'0 0.1
2017-Sep-13 00:20N 38°10' E 119°06'0 0.0
2017-Sep-12 15:51N 38°10' E 119°06'0 0.0
2017-Sep-12 15:27N 38°10' E 119°06'  
Track history (hours):
 
Tides and Currents Weather Stations Pressure Air Temp Water Temp Dewpoint Dewpoint Depression Visibility Wind Speed Wind Dir Waves Ship Positions

Port Stanley

Last reported at 2017-Sep-21 06:27 UTC. Time now 2017-Oct-23 03:01 UTC.
Position N 37°46' E 122°34'.
Warning: this ship's position is 31 days out of date.

Length 183 m; draft 8.5 m.

Type: Ship. MMSI: 538090299.

Date/timePositionNaut miles runAvg speedWind from/ knotsBaromVisibWave heightAir tempDewpointWater temp
2017-Sep-21 06:27N 37°46' E 122°34'511.5
2017-Sep-21 06:00N 37°48' E 122°28'611.8
2017-Sep-21 05:30N 37°51' E 122°22'612.0
2017-Sep-21 05:00N 37°54' E 122°15'611.9
2017-Sep-21 04:31N 37°58' E 122°09'711.5
2017-Sep-21 03:55N 38°01' E 122°01'611.4
2017-Sep-21 03:22N 38°04' E 121°54'411.3
2017-Sep-21 03:01N 38°06' E 121°50'911.3
2017-Sep-21 02:15N 38°11' E 121°41'811.4
2017-Sep-21 01:34N 38°15' E 121°32'111.5
2017-Sep-21 01:30N 38°15' E 121°31'  
2017-Sep-14 23:25N 38°10' E 119°06'0 0.0
2017-Sep-14 16:07N 38°10' E 119°06'0 0.0
2017-Sep-13 17:01N 38°10' E 119°06'0 0.0
2017-Sep-13 16:55N 38°10' E 119°06'0 0.0
2017-Sep-13 16:19N 38°10' E 119°06'0 0.0
2017-Sep-13 02:56N 38°10' E 119°06'0 0.0
2017-Sep-13 02:26N 38°10' E 119°06'0 0.1
2017-Sep-13 01:57N 38°10' E 119°06'0 0.1
2017-Sep-13 00:20N 38°10' E 119°06'0 0.0
2017-Sep-12 15:51N 38°10' E 119°06'0 0.0
2017-Sep-12 15:27N 38°10' E 119°06'  

Dump ship's entire track history